Home   Weather   Germany   Herten   Past weeks
Flag for Germany

Past Weather in Herten, North Rhine-Westphalia, Germany — Yesterday and Last 2 Weeks

Currently: 59 °F. Scattered showers. Passing clouds. (Weather station: Dortmund / Wickede, Germany). See more current weather

Past Weather in Herten — Graph

°F

Herten Temperature Yesterday

Maximum temperature yesterday: 66 °F (at 12:20 pm)
Minimum temperature yesterday: 54 °F (at 4:50 am)
Average temperature yesterday: 60 °F

High & Low Weather Summary for the Past Weeks

 TemperatureHumidityPressure
High79 °F (May 14, 1:20 pm)100% (May 4, 11:20 pm)30.33 "Hg (May 4, 11:20 pm)
Low46 °F (May 9, 4:50 am)32% (May 14, 6:20 pm)29.62 "Hg (May 16, 6:20 am)
Average61 °F72%29.93 "Hg
* Reported May 4 4:20 pm — May 19 4:20 pm, Herten. Weather by CustomWeather, © 2024

Note: Actual official high and low records may vary slightly from our data, if they occured in-between our weather recording intervals... More about our weather records

Herten Weather History for the Previous 24 Hours

Scroll right to see more
 ConditionsComfort  
Time TempWeatherWind HumidityBarometerVisibility
4:20 pm
Sun, May 19
59 °FThundershowers. Passing clouds.6 mph88%29.83 "HgN/A
3:20 pm64 °FScattered clouds.7 mph73%29.80 "HgN/A
2:50 pm66 °FPartly sunny.10 mph68%29.80 "HgN/A
1:50 pm64 °FPartly sunny.9 mph73%29.83 "HgN/A
1:20 pm66 °FPartly sunny.8 mph68%29.83 "HgN/A
12:50 pm66 °FScattered clouds.8 mph68%29.83 "HgN/A
12:20 pm64 °FPartly sunny.8 mph78%29.83 "Hg6 mi
11:50 am63 °FScattered clouds.7 mph73%29.83 "HgN/A
11:20 am63 °FBroken clouds.8 mph77%29.83 "HgN/A
10:50 am63 °FScattered clouds.8 mph83%29.83 "HgN/A
10:20 am61 °FScattered clouds.8 mph88%29.83 "HgN/A
9:50 am61 °FPassing clouds.8 mph83%29.83 "HgN/A
9:20 am59 °FPassing clouds.5 mph88%29.83 "HgN/A
8:50 am57 °FSunny.3 mph94%29.83 "Hg10 mi
8:20 am57 °FSunny.6 mph94%29.83 "Hg10 mi
7:50 am57 °FSunny.5 mph94%29.83 "Hg10 mi
7:20 am57 °FPassing clouds.5 mph94%29.83 "HgN/A
6:50 am55 °FSunny.5 mph94%29.80 "Hg10 mi
6:20 am55 °FPassing clouds.5 mph94%29.80 "HgN/A
5:50 am55 °FSunny.5 mph94%29.80 "Hg10 mi
5:20 am55 °FClear.5 mph94%29.80 "Hg10 mi
4:50 am55 °FMostly cloudy.2 mph94%29.80 "HgN/A
4:20 am55 °FOvercast.2 mph100%29.80 "HgN/A
3:50 am55 °FMostly cloudy.2 mph94%29.80 "HgN/A
3:20 am55 °FMostly cloudy.5 mph94%29.80 "HgN/A
2:50 am54 °FPartly cloudy.3 mph100%29.80 "HgN/A
2:20 am55 °FMostly cloudy.No wind94%29.80 "HgN/A
1:50 am55 °FMostly cloudy.No wind100%29.80 "HgN/A
1:20 am55 °FOvercast.1 mph100%29.83 "HgN/A
12:50 am57 °FOvercast.No wind88%29.83 "HgN/A
12:20 am55 °FOvercast.No wind94%29.83 "HgN/A
11:50 pm
Sat, May 18
55 °FMostly cloudy.2 mph94%29.83 "HgN/A
11:20 pm55 °FOvercast.No wind100%29.83 "HgN/A
10:50 pm55 °FClear.No wind94%29.83 "Hg10 mi
10:20 pm57 °FClear.1 mph94%29.83 "Hg10 mi
9:50 pm57 °FClear.2 mph88%29.80 "Hg10 mi
9:20 pm55 °FClear.2 mph100%29.80 "Hg10 mi
8:50 pm57 °FSunny.2 mph88%29.80 "Hg10 mi
8:20 pm59 °FSunny.5 mph77%29.80 "Hg10 mi
7:50 pm59 °FScattered showers. Scattered clouds.3 mph77%29.80 "HgN/A
7:20 pm63 °FSprinkles. Scattered clouds.6 mph68%29.80 "HgN/A
6:50 pm64 °FPassing clouds.6 mph64%29.80 "HgN/A
6:20 pm64 °FSunny.7 mph64%29.80 "Hg10 mi
5:50 pm64 °FPassing clouds.7 mph64%29.80 "HgN/A
5:20 pm66 °FSunny.8 mph60%29.80 "Hg10 mi
Weather by CustomWeather, © 2024

See weather overview